Terminal Aerodrome Forecast
Issued by NWS

Home | Current Version | Previous Version | Text Only | Print | Product List | Glossary On
Versions: 1 2 3 4 5 6 7 8 9 10 11 12 13 14 15 16 17 18 19 20 21 22 23 24 25 26 27 28 29 30 31 32 33 34
000
FTUS45 KSLC 101141
TAFOGD
TAF
KOGD 101141Z 1012/1112 17010KT P6SM -RA SCT040 BKN050
     FM102100 23010KT 6SM -RA BKN050 OVC080
     FM110300 18005KT 4SM -RASN SCT020 BKN030
     FM110800 18005KT P6SM VCSH SCT030 BKN040=

USA.gov is the U.S. government's official web portal to all federal, state and local government web resources and services.